createdAt,value
2023-11-23T00:00:32.264Z,1.72
2023-11-23T00:03:03.239Z,1.71
2023-11-23T00:05:33.871Z,1.70
2023-11-23T00:08:04.624Z,1.86
2023-11-23T00:10:35.192Z,1.88
2023-11-23T00:13:05.975Z,2.03
2023-11-23T00:15:36.778Z,1.96
2023-11-23T00:18:07.519Z,2.00
2023-11-23T00:20:38.789Z,1.86
2023-11-23T00:23:10.752Z,2.06
2023-11-23T00:25:41.426Z,2.04
2023-11-23T00:28:14.686Z,2.08
2023-11-23T00:30:45.247Z,2.04
2023-11-23T00:33:16.970Z,2.18
2023-11-23T00:35:47.710Z,2.12
2023-11-23T00:38:20.157Z,2.11
2023-11-23T00:40:50.800Z,2.14
2023-11-23T00:43:21.374Z,2.16
2023-11-23T00:45:51.860Z,2.28
2023-11-23T00:48:22.775Z,2.20
2023-11-23T00:50:53.633Z,2.32
2023-11-23T00:53:24.471Z,2.22
2023-11-23T00:55:58.291Z,2.22
2023-11-23T00:58:28.977Z,2.27
2023-11-23T01:00:59.547Z,2.31
2023-11-23T01:03:30.281Z,2.32
2023-11-23T01:06:01.215Z,2.30
2023-11-23T01:08:31.712Z,2.30
2023-11-23T01:11:03.415Z,2.34
2023-11-23T01:13:34.130Z,2.42
2023-11-23T01:16:05.584Z,2.30
2023-11-23T01:18:36.291Z,2.36
2023-11-23T01:21:06.953Z,2.46
2023-11-23T01:23:37.648Z,2.47
2023-11-23T01:26:08.761Z,2.50
2023-11-23T01:28:39.276Z,2.56
2023-11-23T01:31:10.583Z,2.64
2023-11-23T01:33:41.567Z,2.66
2023-11-23T01:36:13.878Z,2.60
2023-11-23T01:38:45.574Z,2.74
2023-11-23T01:41:16.376Z,2.68
2023-11-23T01:43:47.731Z,2.74
2023-11-23T01:46:18.513Z,2.78
2023-11-23T01:48:50.998Z,2.80
2023-11-23T01:51:22.364Z,2.93
2023-11-23T01:53:54.596Z,3.02
2023-11-23T01:56:27.317Z,2.96
2023-11-23T01:59:00.572Z,2.97
2023-11-23T02:01:31.314Z,2.96
2023-11-23T02:04:02.099Z,3.10
2023-11-23T02:06:32.754Z,3.08
2023-11-23T02:09:04.531Z,3.15
2023-11-23T02:11:37.597Z,3.11
2023-11-23T02:14:09.308Z,3.12
2023-11-23T02:16:40.644Z,3.16
2023-11-23T02:19:11.375Z,3.31
2023-11-23T02:21:41.934Z,3.27
2023-11-23T02:24:13.281Z,3.26
2023-11-23T02:26:43.859Z,3.32
2023-11-23T02:29:14.923Z,3.36
2023-11-23T02:31:45.422Z,3.44
2023-11-23T02:34:16.063Z,3.65
2023-11-23T02:36:47.389Z,3.54
2023-11-23T02:39:19.225Z,3.53
2023-11-23T02:41:49.995Z,3.64
2023-11-23T02:44:20.516Z,3.60
2023-11-23T02:46:51.356Z,3.70
2023-11-23T02:49:23.814Z,3.64
2023-11-23T02:51:55.690Z,3.70
2023-11-23T02:54:27.832Z,3.82
2023-11-23T02:56:58.536Z,3.82
2023-11-23T02:59:29.266Z,3.84
2023-11-23T03:02:01.549Z,3.88
2023-11-23T03:04:32.325Z,3.95
2023-11-23T03:07:03.061Z,3.88
2023-11-23T03:09:34.052Z,4.09
2023-11-23T03:12:04.953Z,4.09
2023-11-23T03:14:35.873Z,4.15
2023-11-23T03:17:09.276Z,4.11
2023-11-23T03:19:40.737Z,4.10
2023-11-23T03:22:11.424Z,4.34
2023-11-23T03:24:42.055Z,4.26
2023-11-23T03:27:13.866Z,4.18
2023-11-23T03:29:44.668Z,4.16
2023-11-23T03:32:15.783Z,4.23
2023-11-23T03:34:46.963Z,4.40
2023-11-23T03:37:17.552Z,4.34
2023-11-23T03:39:48.570Z,4.44
2023-11-23T03:42:19.768Z,4.50
2023-11-23T03:44:50.628Z,4.42
2023-11-23T03:47:21.143Z,4.54
2023-11-23T03:49:52.631Z,4.55
2023-11-23T03:52:24.068Z,4.48
2023-11-23T03:54:54.654Z,4.50
2023-11-23T03:57:25.765Z,4.62
2023-11-23T03:59:56.733Z,4.68
2023-11-23T04:02:30.220Z,4.56
2023-11-23T04:05:00.868Z,4.71
2023-11-23T04:07:33.263Z,4.78
2023-11-23T04:10:04.929Z,4.80
2023-11-23T04:12:37.237Z,4.85
2023-11-23T04:15:08.949Z,4.76
2023-11-23T04:17:39.929Z,4.82
2023-11-23T04:20:10.997Z,4.92
2023-11-23T04:22:41.455Z,4.78
2023-11-23T04:25:12.138Z,4.88
2023-11-23T04:27:44.772Z,4.88
2023-11-23T04:30:15.746Z,4.96
2023-11-23T04:32:47.486Z,4.96
2023-11-23T04:35:18.389Z,4.96
2023-11-23T04:37:49.358Z,4.94
2023-11-23T04:40:20.073Z,5.00
2023-11-23T04:42:50.577Z,5.24
2023-11-23T04:45:21.925Z,5.08
2023-11-23T04:47:53.428Z,5.06
2023-11-23T04:50:26.428Z,5.12
2023-11-23T04:52:58.317Z,5.12
2023-11-23T04:55:33.074Z,5.16
2023-11-23T04:58:06.434Z,5.25
2023-11-23T05:00:37.369Z,5.32
2023-11-23T05:03:08.095Z,5.32
2023-11-23T05:05:38.993Z,5.32
2023-11-23T05:08:11.011Z,5.34
2023-11-23T05:10:41.482Z,5.33
2023-11-23T05:13:12.080Z,5.33
2023-11-23T05:15:43.106Z,5.37
2023-11-23T05:18:15.120Z,5.44
2023-11-23T05:20:46.111Z,5.40
2023-11-23T05:23:16.672Z,5.44
2023-11-23T05:25:47.219Z,5.49
2023-11-23T05:28:24.032Z,5.42
2023-11-23T05:30:54.750Z,5.52
2023-11-23T05:33:26.107Z,5.58
2023-11-23T05:35:56.838Z,5.59
2023-11-23T05:38:27.494Z,5.66
2023-11-23T05:40:58.231Z,5.62
2023-11-23T05:43:28.695Z,5.60
2023-11-23T05:45:59.607Z,5.76
2023-11-23T05:48:30.808Z,5.71
2023-11-23T05:51:01.551Z,5.68
2023-11-23T05:53:32.010Z,5.83
2023-11-23T05:56:04.071Z,5.87
2023-11-23T05:58:34.579Z,5.96
2023-11-23T06:01:10.122Z,5.94
2023-11-23T06:03:39.048Z,6.02
2023-11-23T06:06:10.805Z,6.04
2023-11-23T06:08:41.246Z,6.02
2023-11-23T06:11:11.722Z,5.94
2023-11-23T06:13:45.954Z,6.11
2023-11-23T06:16:17.012Z,6.04
2023-11-23T06:18:47.539Z,6.13
2023-11-23T06:21:18.524Z,6.23
2023-11-23T06:23:51.005Z,6.17
2023-11-23T06:26:22.018Z,6.10
2023-11-23T06:28:52.651Z,6.17
2023-11-23T06:31:24.198Z,6.19
2023-11-23T06:33:54.784Z,6.20
2023-11-23T06:36:25.572Z,6.24
2023-11-23T06:38:56.560Z,6.24
2023-11-23T06:41:27.104Z,6.10
2023-11-23T06:43:57.927Z,6.21
2023-11-23T06:46:29.660Z,6.05
2023-11-23T06:49:00.243Z,6.08
2023-11-23T06:51:32.938Z,6.12
2023-11-23T06:54:03.825Z,6.16
2023-11-23T06:56:35.658Z,6.15
2023-11-23T06:59:07.596Z,6.18
2023-11-23T07:01:38.130Z,6.14
2023-11-23T07:04:08.968Z,6.17
2023-11-23T07:06:39.800Z,6.22
2023-11-23T07:09:11.992Z,6.21
2023-11-23T07:11:42.685Z,6.19
2023-11-23T07:14:13.274Z,6.35
2023-11-23T07:16:44.101Z,6.27
2023-11-23T07:19:14.670Z,6.26
2023-11-23T07:21:47.733Z,6.29
2023-11-23T07:24:18.752Z,6.34
2023-11-23T07:26:51.564Z,6.38
2023-11-23T07:29:22.132Z,6.40
2023-11-23T07:31:54.154Z,6.38
2023-11-23T07:34:26.056Z,6.44
2023-11-23T07:36:56.648Z,6.45
2023-11-23T07:39:27.950Z,6.53
2023-11-23T07:42:00.099Z,6.51
2023-11-23T07:44:30.873Z,6.62
2023-11-23T07:47:01.681Z,6.67
2023-11-23T07:49:32.399Z,6.65
2023-11-23T07:52:03.014Z,6.59
2023-11-23T07:54:35.107Z,6.64
2023-11-23T07:57:06.356Z,6.63
2023-11-23T07:59:37.874Z,6.69
2023-11-23T08:02:09.042Z,6.60
2023-11-23T08:04:39.911Z,6.70
2023-11-23T08:07:10.798Z,6.70
2023-11-23T08:09:41.422Z,6.71
2023-11-23T08:12:13.030Z,6.68
2023-11-23T08:14:43.711Z,6.70
2023-11-23T08:17:14.577Z,6.76
2023-11-23T08:19:47.923Z,6.76
2023-11-23T08:22:20.410Z,6.74
2023-11-23T08:24:51.045Z,6.76
2023-11-23T08:27:22.796Z,6.78
2023-11-23T08:29:53.734Z,6.82
2023-11-23T08:32:25.347Z,6.92
2023-11-23T08:34:57.265Z,6.90
2023-11-23T08:37:28.605Z,6.92
2023-11-23T08:39:59.214Z,6.92
2023-11-23T08:42:29.937Z,6.92
2023-11-23T08:45:01.132Z,6.98
2023-11-23T08:47:31.665Z,7.02
2023-11-23T08:50:03.932Z,7.06
2023-11-23T08:52:34.802Z,7.08
2023-11-23T08:55:06.251Z,7.17
2023-11-23T08:57:47.270Z,7.21
2023-11-23T09:00:20.598Z,7.24
2023-11-23T09:02:54.637Z,7.31
2023-11-23T09:05:25.557Z,7.34
2023-11-23T09:07:56.508Z,7.32
2023-11-23T09:10:27.212Z,7.34
2023-11-23T09:12:57.794Z,7.29
2023-11-23T09:15:28.407Z,7.46
2023-11-23T09:17:59.604Z,7.36
2023-11-23T09:20:30.145Z,7.54
2023-11-23T09:23:05.926Z,7.36
2023-11-23T09:25:37.845Z,7.49
2023-11-23T09:28:09.291Z,7.46
2023-11-23T09:30:39.900Z,7.40
2023-11-23T09:33:11.255Z,7.38
2023-11-23T09:35:43.981Z,7.47
2023-11-23T09:38:14.625Z,7.45
2023-11-23T09:40:46.972Z,7.43
2023-11-23T09:43:17.750Z,7.45
2023-11-23T09:45:49.005Z,7.55
2023-11-23T09:48:22.320Z,7.38
2023-11-23T09:50:54.073Z,7.48
2023-11-23T09:53:26.784Z,7.53
2023-11-23T09:55:58.119Z,7.50
2023-11-23T09:58:29.398Z,7.50
2023-11-23T10:01:02.974Z,7.52
2023-11-23T10:03:36.491Z,7.56
2023-11-23T10:06:07.717Z,7.61
2023-11-23T10:08:38.403Z,7.70
2023-11-23T10:11:08.969Z,7.64
2023-11-23T10:13:39.473Z,7.61
2023-11-23T10:16:14.298Z,7.67
2023-11-23T10:18:45.058Z,7.67
2023-11-23T10:21:15.898Z,7.70
2023-11-23T10:23:47.846Z,7.70
2023-11-23T10:26:19.807Z,7.66
2023-11-23T10:28:50.348Z,7.66
2023-11-23T10:31:21.463Z,7.69
2023-11-23T10:33:52.525Z,7.68
2023-11-23T10:36:26.215Z,7.76
2023-11-23T10:39:01.803Z,7.71
2023-11-23T10:41:33.908Z,7.76
2023-11-23T10:44:05.261Z,7.77
2023-11-23T10:46:40.730Z,7.82
2023-11-23T10:49:13.430Z,7.79
2023-11-23T10:51:45.859Z,7.85
2023-11-23T10:54:16.803Z,7.88
2023-11-23T10:56:48.574Z,7.89
2023-11-23T10:59:22.201Z,7.87
2023-11-23T11:01:56.012Z,7.84
2023-11-23T11:04:31.274Z,7.95
2023-11-23T11:07:05.223Z,7.95
2023-11-23T11:09:36.965Z,7.87
2023-11-23T11:12:16.135Z,7.88
2023-11-23T11:14:49.671Z,7.93
2023-11-23T11:17:20.179Z,7.98
2023-11-23T11:19:54.381Z,7.94
2023-11-23T11:22:24.949Z,8.04
2023-11-23T11:25:03.047Z,7.98
2023-11-23T11:27:35.569Z,7.94
2023-11-23T11:30:09.583Z,7.96
2023-11-23T11:32:45.496Z,7.98
2023-11-23T11:35:20.028Z,7.98
2023-11-23T11:37:52.504Z,7.94
2023-11-23T11:40:23.641Z,8.02
2023-11-23T11:42:55.608Z,8.12
2023-11-23T11:45:26.332Z,8.14
2023-11-23T11:48:00.721Z,8.20
2023-11-23T11:50:31.377Z,8.20
2023-11-23T11:53:02.175Z,8.30
2023-11-23T11:55:33.085Z,8.30
2023-11-23T11:58:05.307Z,8.34
2023-11-23T12:00:37.020Z,8.40
2023-11-23T12:03:07.715Z,8.50
2023-11-23T12:05:42.875Z,8.50
2023-11-23T12:08:14.096Z,8.48
2023-11-23T12:10:45.414Z,8.52
2023-11-23T12:13:26.441Z,8.70
2023-11-23T12:15:57.339Z,8.81
2023-11-23T12:18:37.130Z,8.78
2023-11-23T12:21:15.103Z,8.86
2023-11-23T12:23:46.658Z,8.97
2023-11-23T12:26:17.499Z,8.97
2023-11-23T12:28:51.975Z,8.94
2023-11-23T12:31:22.781Z,8.89
2023-11-23T12:33:53.850Z,8.98
2023-11-23T12:36:25.590Z,8.98
2023-11-23T12:38:58.218Z,9.00
2023-11-23T12:41:31.142Z,9.12
2023-11-23T12:44:01.122Z,9.05
2023-11-23T12:46:32.559Z,9.08
2023-11-23T12:49:05.023Z,9.14
2023-11-23T12:51:35.817Z,9.32
2023-11-23T12:54:07.815Z,9.26
2023-11-23T12:56:40.395Z,9.40
2023-11-23T12:59:11.719Z,9.35
2023-11-23T13:01:44.070Z,9.51
2023-11-23T13:04:15.306Z,9.41
2023-11-23T13:06:46.199Z,9.48
2023-11-23T13:09:17.243Z,9.52
2023-11-23T13:11:49.146Z,9.65
2023-11-23T13:14:21.470Z,9.69
2023-11-23T13:16:52.257Z,9.68
2023-11-23T13:19:30.581Z,9.80
2023-11-23T13:21:55.732Z,9.78
2023-11-23T13:24:27.600Z,9.73
2023-11-23T13:26:58.465Z,9.86
2023-11-23T13:29:29.016Z,9.81
2023-11-23T13:31:59.633Z,9.86
2023-11-23T13:34:31.933Z,9.84
2023-11-23T13:37:03.547Z,9.80
2023-11-23T13:39:35.896Z,9.71
2023-11-23T13:42:06.981Z,9.77
2023-11-23T13:44:37.554Z,9.86
2023-11-23T13:47:10.054Z,9.71
2023-11-23T13:49:43.505Z,9.80
2023-11-23T13:52:18.823Z,9.78
2023-11-23T13:54:52.232Z,9.63
2023-11-23T13:57:25.105Z,9.64
2023-11-23T13:59:59.466Z,9.66
2023-11-23T14:02:30.063Z,9.64
2023-11-23T14:05:00.590Z,9.72
2023-11-23T14:07:31.401Z,9.65
2023-11-23T14:10:03.625Z,9.59
2023-11-23T14:12:35.026Z,9.64
2023-11-23T14:15:07.132Z,9.65
2023-11-23T14:17:38.249Z,9.60
2023-11-23T14:20:10.771Z,9.59
2023-11-23T14:22:47.448Z,9.64
2023-11-23T14:25:18.805Z,9.60
2023-11-23T14:27:50.269Z,9.64
2023-11-23T14:30:22.678Z,9.71
2023-11-23T14:32:55.965Z,9.69
2023-11-23T14:35:30.237Z,9.72
2023-11-23T14:38:02.580Z,9.65
2023-11-23T14:40:37.073Z,9.61
2023-11-23T14:43:09.792Z,9.62
2023-11-23T14:45:40.371Z,9.52
2023-11-23T14:48:12.713Z,9.60
2023-11-23T14:50:45.164Z,9.50
2023-11-23T14:53:15.686Z,9.46
2023-11-23T14:55:49.806Z,9.52
2023-11-23T14:58:20.584Z,9.49
2023-11-23T15:00:53.214Z,9.47
2023-11-23T15:03:24.371Z,9.52
2023-11-23T15:05:55.095Z,9.55
2023-11-23T15:08:26.470Z,9.60
2023-11-23T15:10:57.213Z,9.55
2023-11-23T15:13:35.979Z,9.65
2023-11-23T15:16:03.157Z,9.62
2023-11-23T15:18:36.532Z,9.66
2023-11-23T15:21:06.777Z,9.68
2023-11-23T15:23:38.267Z,9.70
2023-11-23T15:26:11.316Z,9.71
2023-11-23T15:28:44.179Z,9.76
2023-11-23T15:31:17.152Z,9.85
2023-11-23T15:33:48.775Z,9.80
2023-11-23T15:36:20.405Z,9.86
2023-11-23T15:38:52.262Z,9.86
2023-11-23T15:41:25.874Z,9.95
2023-11-23T15:43:59.356Z,9.99
2023-11-23T15:46:30.619Z,9.97
2023-11-23T15:49:03.353Z,9.98
2023-11-23T15:51:35.783Z,10.08
2023-11-23T15:54:10.719Z,10.06
2023-11-23T15:56:41.197Z,10.06
2023-11-23T15:59:13.499Z,10.15
2023-11-23T16:01:45.708Z,10.14
2023-11-23T16:04:16.554Z,10.12
2023-11-23T16:06:47.160Z,10.15
2023-11-23T16:09:20.685Z,10.10
2023-11-23T16:11:51.616Z,10.13
2023-11-23T16:14:24.908Z,10.10
2023-11-23T16:16:57.149Z,10.14
2023-11-23T16:19:29.731Z,10.14
2023-11-23T16:22:03.720Z,10.16
2023-11-23T16:24:37.132Z,10.14
2023-11-23T16:27:08.648Z,10.16
2023-11-23T16:29:39.540Z,10.27
2023-11-23T16:32:11.667Z,10.24
2023-11-23T16:34:42.360Z,10.34
2023-11-23T16:37:12.974Z,10.27
2023-11-23T16:39:44.637Z,10.36
2023-11-23T16:42:15.655Z,10.32
2023-11-23T16:44:47.838Z,10.32
2023-11-23T16:47:18.540Z,10.33
2023-11-23T16:49:49.702Z,10.38
2023-11-23T16:52:20.350Z,10.28
2023-11-23T16:54:51.089Z,10.34
2023-11-23T16:57:21.860Z,10.26
2023-11-23T16:59:52.433Z,10.24
2023-11-23T17:02:23.819Z,10.22
2023-11-23T17:04:56.047Z,10.12
2023-11-23T17:07:26.424Z,10.08
2023-11-23T17:09:59.260Z,10.08
2023-11-23T17:12:29.913Z,10.02
2023-11-23T17:15:03.385Z,10.08
2023-11-23T17:17:35.744Z,10.05
2023-11-23T17:20:07.871Z,10.00
2023-11-23T17:22:39.544Z,10.07
2023-11-23T17:25:13.368Z,10.10
2023-11-23T17:27:45.967Z,10.10
2023-11-23T17:30:17.076Z,10.12
2023-11-23T17:32:49.794Z,10.12
2023-11-23T17:35:22.535Z,10.10
2023-11-23T17:37:54.453Z,10.16
2023-11-23T17:40:25.056Z,10.29
2023-11-23T17:42:56.386Z,10.31
2023-11-23T17:45:26.969Z,10.36
2023-11-23T17:47:57.972Z,10.31
2023-11-23T17:50:29.690Z,10.41
2023-11-23T17:53:00.331Z,10.40
2023-11-23T17:55:32.664Z,10.34
2023-11-23T17:58:04.171Z,10.34
2023-11-23T18:00:36.539Z,10.34
2023-11-23T18:03:07.928Z,10.26
2023-11-23T18:05:41.373Z,10.19
2023-11-23T18:08:12.319Z,10.25
2023-11-23T18:10:42.971Z,10.25
2023-11-23T18:13:14.071Z,10.27
2023-11-23T18:15:48.079Z,10.19
2023-11-23T18:18:23.868Z,10.14
2023-11-23T18:20:52.480Z,10.23
2023-11-23T18:23:25.279Z,10.26
2023-11-23T18:25:56.836Z,10.23
2023-11-23T18:28:27.569Z,10.29
2023-11-23T18:30:58.275Z,10.29
2023-11-23T18:33:30.760Z,10.31
2023-11-23T18:36:02.377Z,10.30
2023-11-23T18:38:37.106Z,10.35
2023-11-23T18:41:09.789Z,10.32
2023-11-23T18:43:40.551Z,10.35
2023-11-23T18:46:13.531Z,10.26
2023-11-23T18:48:44.854Z,10.22
2023-11-23T18:51:15.762Z,10.20
2023-11-23T18:53:46.497Z,10.26
2023-11-23T18:56:18.192Z,10.27
2023-11-23T18:58:49.735Z,10.32
2023-11-23T19:01:20.268Z,10.26
2023-11-23T19:03:51.267Z,10.44
2023-11-23T19:06:23.459Z,10.56
2023-11-23T19:08:58.171Z,10.46
2023-11-23T19:11:28.725Z,10.38
2023-11-23T19:13:59.470Z,10.38
2023-11-23T19:16:33.496Z,10.39
2023-11-23T19:19:08.570Z,10.40
2023-11-23T19:21:39.717Z,10.36
2023-11-23T19:24:12.044Z,10.41
2023-11-23T19:26:44.273Z,10.28
2023-11-23T19:29:15.620Z,9.92
2023-11-23T19:31:51.204Z,8.86
2023-11-23T19:34:23.541Z,8.44
2023-11-23T19:36:57.479Z,8.37
2023-11-23T19:39:33.077Z,8.26
2023-11-23T19:42:06.003Z,8.18
2023-11-23T19:44:42.959Z,8.17
2023-11-23T19:47:18.689Z,8.13
2023-11-23T19:49:50.259Z,8.08
2023-11-23T19:52:25.394Z,8.02
2023-11-23T19:54:57.825Z,8.03
2023-11-23T19:57:29.934Z,7.94
2023-11-23T20:00:03.801Z,7.89
2023-11-23T20:02:38.272Z,7.82
2023-11-23T20:05:13.297Z,7.78
2023-11-23T20:07:43.886Z,7.77
2023-11-23T20:10:15.067Z,7.71
2023-11-23T20:12:47.223Z,7.70
2023-11-23T20:15:18.437Z,7.67
2023-11-23T20:17:49.882Z,7.63
2023-11-23T20:20:20.899Z,7.62
2023-11-23T20:22:51.479Z,7.60
2023-11-23T20:25:22.604Z,7.56
2023-11-23T20:27:53.817Z,7.56
2023-11-23T20:30:26.200Z,7.49
2023-11-23T20:32:56.871Z,7.52
2023-11-23T20:35:28.415Z,7.46
2023-11-23T20:37:59.418Z,7.50
2023-11-23T20:40:30.657Z,7.40
2023-11-23T20:43:02.329Z,7.37
2023-11-23T20:45:34.047Z,7.34
2023-11-23T20:48:07.854Z,7.32
2023-11-23T20:50:38.631Z,7.32
2023-11-23T20:53:09.565Z,7.30
2023-11-23T20:55:44.372Z,7.26
2023-11-23T20:58:16.035Z,7.26
2023-11-23T21:00:47.176Z,7.21
2023-11-23T21:03:20.375Z,7.25
2023-11-23T21:05:51.405Z,7.20
2023-11-23T21:08:22.626Z,7.22
2023-11-23T21:10:54.988Z,7.22
2023-11-23T21:13:27.025Z,7.20
2023-11-23T21:16:04.808Z,7.21
2023-11-23T21:18:32.405Z,7.23
2023-11-23T21:21:05.799Z,7.18
2023-11-23T21:23:38.914Z,7.16
2023-11-23T21:26:11.106Z,7.13
2023-11-23T21:28:44.363Z,7.16
2023-11-23T21:31:14.979Z,7.14
2023-11-23T21:33:46.743Z,7.17
2023-11-23T21:36:18.915Z,7.16
2023-11-23T21:38:49.848Z,7.14
2023-11-23T21:41:20.345Z,7.12
2023-11-23T21:43:50.779Z,7.14
2023-11-23T21:46:21.838Z,7.24
2023-11-23T21:48:53.573Z,7.24
2023-11-23T21:51:28.549Z,7.19
2023-11-23T21:53:59.160Z,7.26
2023-11-23T21:56:30.312Z,7.20
2023-11-23T21:59:01.439Z,7.24
2023-11-23T22:01:33.336Z,7.26
2023-11-23T22:04:04.761Z,7.30
2023-11-23T22:06:37.096Z,7.28
2023-11-23T22:09:09.490Z,7.22
2023-11-23T22:11:40.230Z,7.22
2023-11-23T22:14:11.596Z,7.66
2023-11-23T22:16:42.370Z,8.81
2023-11-23T22:19:13.092Z,8.72
2023-11-23T22:21:48.063Z,7.74
2023-11-23T22:24:19.747Z,7.38
2023-11-23T22:26:50.670Z,7.18
2023-11-23T22:29:21.401Z,7.00
2023-11-23T22:31:53.505Z,6.91
2023-11-23T22:34:24.716Z,6.84
2023-11-23T22:36:58.101Z,6.74
2023-11-23T22:39:30.092Z,6.72
2023-11-23T22:42:01.544Z,6.72
2023-11-23T22:44:33.062Z,6.70
2023-11-23T22:47:15.502Z,6.78
2023-11-23T22:49:48.122Z,6.84
2023-11-23T22:52:19.486Z,6.76
2023-11-23T22:54:50.920Z,6.69
2023-11-23T22:57:21.492Z,6.64
2023-11-23T22:59:52.233Z,6.64
2023-11-23T23:02:24.337Z,6.64
2023-11-23T23:04:55.363Z,6.64
2023-11-23T23:07:26.419Z,6.66
2023-11-23T23:09:57.035Z,6.59
2023-11-23T23:12:28.193Z,6.65
2023-11-23T23:14:59.917Z,6.74
2023-11-23T23:17:31.605Z,6.70
2023-11-23T23:20:03.810Z,6.78
2023-11-23T23:22:35.757Z,6.84
2023-11-23T23:25:07.096Z,6.82
2023-11-23T23:27:37.678Z,6.96
2023-11-23T23:30:11.909Z,7.00
2023-11-23T23:32:43.938Z,7.04
2023-11-23T23:35:14.917Z,7.04
2023-11-23T23:37:45.665Z,7.00
2023-11-23T23:40:16.489Z,7.02
2023-11-23T23:42:48.743Z,7.03
2023-11-23T23:45:21.526Z,7.04
2023-11-23T23:47:52.171Z,7.00
2023-11-23T23:50:24.386Z,6.94
2023-11-23T23:52:54.884Z,6.91
2023-11-23T23:55:25.499Z,6.88
2023-11-23T23:57:58.114Z,6.82
